sensor_id;sensor_type;location;lat;lon;timestamp;temperature;humidity
4725;DHT22;2376;53.544;10.226;2022-07-06T00:01:48;17.10;99.90
4725;DHT22;2376;53.544;10.226;2022-07-06T00:04:16;17.00;99.90
4725;DHT22;2376;53.544;10.226;2022-07-06T00:06:44;17.10;99.90
4725;DHT22;2376;53.544;10.226;2022-07-06T00:09:11;17.00;99.90
4725;DHT22;2376;53.544;10.226;2022-07-06T00:11:38;17.00;99.90
4725;DHT22;2376;53.544;10.226;2022-07-06T00:14:05;17.00;99.90
4725;DHT22;2376;53.544;10.226;2022-07-06T00:16:32;17.00;99.90
4725;DHT22;2376;53.544;10.226;2022-07-06T00:18:59;17.00;99.90
4725;DHT22;2376;53.544;10.226;2022-07-06T00:21:26;17.00;99.90
4725;DHT22;2376;53.544;10.226;2022-07-06T00:23:54;17.00;99.90
4725;DHT22;2376;53.544;10.226;2022-07-06T00:26:21;17.00;99.90
4725;DHT22;2376;53.544;10.226;2022-07-06T00:28:47;17.00;99.90
4725;DHT22;2376;53.544;10.226;2022-07-06T00:31:14;17.00;99.90
4725;DHT22;2376;53.544;10.226;2022-07-06T00:33:41;16.90;99.90
4725;DHT22;2376;53.544;10.226;2022-07-06T00:36:08;16.90;99.90
4725;DHT22;2376;53.544;10.226;2022-07-06T00:38:35;16.90;99.90
4725;DHT22;2376;53.544;10.226;2022-07-06T00:41:03;16.80;99.90
4725;DHT22;2376;53.544;10.226;2022-07-06T00:43:46;16.80;99.90
4725;DHT22;2376;53.544;10.226;2022-07-06T00:46:13;16.80;99.90
4725;DHT22;2376;53.544;10.226;2022-07-06T00:48:40;16.90;99.90
4725;DHT22;2376;53.544;10.226;2022-07-06T00:51:07;16.90;99.90
4725;DHT22;2376;53.544;10.226;2022-07-06T00:53:34;16.90;99.90
4725;DHT22;2376;53.544;10.226;2022-07-06T00:56:02;16.90;99.90
4725;DHT22;2376;53.544;10.226;2022-07-06T00:58:29;16.90;99.90
4725;DHT22;2376;53.544;10.226;2022-07-06T01:00:56;16.90;99.90
4725;DHT22;2376;53.544;10.226;2022-07-06T01:03:23;16.90;99.90
4725;DHT22;2376;53.544;10.226;2022-07-06T01:05:50;16.90;99.90
4725;DHT22;2376;53.544;10.226;2022-07-06T01:08:17;16.90;99.90
4725;DHT22;2376;53.544;10.226;2022-07-06T01:10:44;16.90;99.90
4725;DHT22;2376;53.544;10.226;2022-07-06T01:13:12;16.80;99.90
4725;DHT22;2376;53.544;10.226;2022-07-06T01:15:39;16.80;99.90
4725;DHT22;2376;53.544;10.226;2022-07-06T01:18:06;16.80;99.90
4725;DHT22;2376;53.544;10.226;2022-07-06T01:20:37;16.80;99.90
4725;DHT22;2376;53.544;10.226;2022-07-06T01:23:03;16.80;99.90
4725;DHT22;2376;53.544;10.226;2022-07-06T01:25:30;16.70;99.90
4725;DHT22;2376;53.544;10.226;2022-07-06T01:27:57;16.70;99.90
4725;DHT22;2376;53.544;10.226;2022-07-06T01:30:24;16.70;99.90
4725;DHT22;2376;53.544;10.226;2022-07-06T01:32:51;16.60;99.90
4725;DHT22;2376;53.544;10.226;2022-07-06T01:35:19;16.70;99.90
4725;DHT22;2376;53.544;10.226;2022-07-06T01:37:47;16.60;99.90
4725;DHT22;2376;53.544;10.226;2022-07-06T01:40:13;16.60;99.90
4725;DHT22;2376;53.544;10.226;2022-07-06T01:42:40;16.60;99.90
4725;DHT22;2376;53.544;10.226;2022-07-06T01:45:09;16.60;99.90
4725;DHT22;2376;53.544;10.226;2022-07-06T01:47:36;16.70;99.90
4725;DHT22;2376;53.544;10.226;2022-07-06T01:50:05;16.70;99.90
4725;DHT22;2376;53.544;10.226;2022-07-06T01:52:33;16.70;99.90
4725;DHT22;2376;53.544;10.226;2022-07-06T01:55:01;16.70;99.90
4725;DHT22;2376;53.544;10.226;2022-07-06T01:57:27;16.70;99.90
4725;DHT22;2376;53.544;10.226;2022-07-06T01:59:54;16.60;99.90
4725;DHT22;2376;53.544;10.226;2022-07-06T02:02:21;16.60;99.90
4725;DHT22;2376;53.544;10.226;2022-07-06T02:04:48;16.60;99.90
4725;DHT22;2376;53.544;10.226;2022-07-06T02:07:14;16.60;99.90
4725;DHT22;2376;53.544;10.226;2022-07-06T02:09:41;16.60;99.90
4725;DHT22;2376;53.544;10.226;2022-07-06T02:12:09;16.50;99.90
4725;DHT22;2376;53.544;10.226;2022-07-06T02:14:36;16.60;99.90
4725;DHT22;2376;53.544;10.226;2022-07-06T02:17:03;16.60;99.90
4725;DHT22;2376;53.544;10.226;2022-07-06T02:19:30;16.50;99.90
4725;DHT22;2376;53.544;10.226;2022-07-06T02:21:56;16.60;99.90
4725;DHT22;2376;53.544;10.226;2022-07-06T02:24:23;16.60;99.90
4725;DHT22;2376;53.544;10.226;2022-07-06T02:26:50;16.50;99.90
4725;DHT22;2376;53.544;10.226;2022-07-06T02:29:18;16.50;99.90
4725;DHT22;2376;53.544;10.226;2022-07-06T02:31:45;16.50;99.90
4725;DHT22;2376;53.544;10.226;2022-07-06T02:34:12;16.50;99.90
4725;DHT22;2376;53.544;10.226;2022-07-06T02:36:38;16.50;99.90
4725;DHT22;2376;53.544;10.226;2022-07-06T02:39:05;16.50;99.90
4725;DHT22;2376;53.544;10.226;2022-07-06T02:41:32;16.40;99.90
4725;DHT22;2376;53.544;10.226;2022-07-06T02:43:58;16.40;99.90
4725;DHT22;2376;53.544;10.226;2022-07-06T02:46:26;16.30;99.90
4725;DHT22;2376;53.544;10.226;2022-07-06T02:48:53;16.30;99.90
4725;DHT22;2376;53.544;10.226;2022-07-06T02:51:20;16.10;99.90
4725;DHT22;2376;53.544;10.226;2022-07-06T02:53:48;16.10;99.90
4725;DHT22;2376;53.544;10.226;2022-07-06T02:56:15;16.20;99.90
4725;DHT22;2376;53.544;10.226;2022-07-06T02:58:42;16.20;99.90
4725;DHT22;2376;53.544;10.226;2022-07-06T03:01:08;16.20;99.90
4725;DHT22;2376;53.544;10.226;2022-07-06T03:03:36;16.20;99.90
4725;DHT22;2376;53.544;10.226;2022-07-06T03:06:03;16.30;99.90
4725;DHT22;2376;53.544;10.226;2022-07-06T03:08:30;16.30;99.90
4725;DHT22;2376;53.544;10.226;2022-07-06T03:10:57;16.30;99.90
4725;DHT22;2376;53.544;10.226;2022-07-06T03:13:24;16.30;99.90
4725;DHT22;2376;53.544;10.226;2022-07-06T03:15:50;16.20;99.90
4725;DHT22;2376;53.544;10.226;2022-07-06T03:18:17;16.20;99.90
4725;DHT22;2376;53.544;10.226;2022-07-06T03:20:45;16.30;99.90
4725;DHT22;2376;53.544;10.226;2022-07-06T03:23:12;16.30;99.90
4725;DHT22;2376;53.544;10.226;2022-07-06T03:25:39;16.30;99.90
4725;DHT22;2376;53.544;10.226;2022-07-06T03:28:05;16.20;99.90
4725;DHT22;2376;53.544;10.226;2022-07-06T03:30:32;16.20;99.90
4725;DHT22;2376;53.544;10.226;2022-07-06T03:32:59;16.20;99.90
4725;DHT22;2376;53.544;10.226;2022-07-06T03:35:26;16.20;99.90
4725;DHT22;2376;53.544;10.226;2022-07-06T03:37:54;16.20;99.90
4725;DHT22;2376;53.544;10.226;2022-07-06T03:40:20;16.20;99.90
4725;DHT22;2376;53.544;10.226;2022-07-06T03:42:47;16.20;99.90
4725;DHT22;2376;53.544;10.226;2022-07-06T03:45:14;16.20;99.90
4725;DHT22;2376;53.544;10.226;2022-07-06T03:47:41;16.20;99.90
4725;DHT22;2376;53.544;10.226;2022-07-06T03:50:08;16.20;99.90
4725;DHT22;2376;53.544;10.226;2022-07-06T03:52:36;16.20;99.90
4725;DHT22;2376;53.544;10.226;2022-07-06T03:55:07;16.20;99.90
4725;DHT22;2376;53.544;10.226;2022-07-06T03:57:34;16.20;99.90
4725;DHT22;2376;53.544;10.226;2022-07-06T04:00:01;16.20;99.90
4725;DHT22;2376;53.544;10.226;2022-07-06T04:02:28;16.20;99.90
4725;DHT22;2376;53.544;10.226;2022-07-06T04:04:55;16.20;99.90
4725;DHT22;2376;53.544;10.226;2022-07-06T04:07:22;16.20;99.90
4725;DHT22;2376;53.544;10.226;2022-07-06T04:09:48;16.20;99.90
4725;DHT22;2376;53.544;10.226;2022-07-06T04:12:17;16.20;99.90
4725;DHT22;2376;53.544;10.226;2022-07-06T04:14:43;16.20;99.90
4725;DHT22;2376;53.544;10.226;2022-07-06T04:17:10;16.20;99.90
4725;DHT22;2376;53.544;10.226;2022-07-06T04:19:54;16.20;99.90
4725;DHT22;2376;53.544;10.226;2022-07-06T04:22:21;16.20;99.90
4725;DHT22;2376;53.544;10.226;2022-07-06T04:24:48;16.20;99.90
4725;DHT22;2376;53.544;10.226;2022-07-06T04:27:14;16.30;99.90
4725;DHT22;2376;53.544;10.226;2022-07-06T04:29:43;16.20;99.90
4725;DHT22;2376;53.544;10.226;2022-07-06T04:32:09;16.20;99.90
4725;DHT22;2376;53.544;10.226;2022-07-06T04:34:36;16.10;99.90
4725;DHT22;2376;53.544;10.226;2022-07-06T04:37:03;16.00;99.90
4725;DHT22;2376;53.544;10.226;2022-07-06T04:39:30;16.00;99.90
4725;DHT22;2376;53.544;10.226;2022-07-06T04:41:57;16.00;99.90
4725;DHT22;2376;53.544;10.226;2022-07-06T04:44:24;16.00;99.90
4725;DHT22;2376;53.544;10.226;2022-07-06T04:46:52;16.00;99.90
4725;DHT22;2376;53.544;10.226;2022-07-06T04:49:19;16.00;99.90
4725;DHT22;2376;53.544;10.226;2022-07-06T04:51:46;16.00;99.90
4725;DHT22;2376;53.544;10.226;2022-07-06T04:54:12;16.10;99.90
4725;DHT22;2376;53.544;10.226;2022-07-06T04:56:39;16.10;99.90
4725;DHT22;2376;53.544;10.226;2022-07-06T04:59:06;16.10;99.90
4725;DHT22;2376;53.544;10.226;2022-07-06T05:01:34;16.10;99.90
4725;DHT22;2376;53.544;10.226;2022-07-06T05:04:02;16.10;99.90
4725;DHT22;2376;53.544;10.226;2022-07-06T05:06:29;16.20;99.90
4725;DHT22;2376;53.544;10.226;2022-07-06T05:08:56;16.20;99.90
4725;DHT22;2376;53.544;10.226;2022-07-06T05:11:25;16.20;99.90
4725;DHT22;2376;53.544;10.226;2022-07-06T05:13:51;16.20;99.90
4725;DHT22;2376;53.544;10.226;2022-07-06T05:16:18;16.20;99.90
4725;DHT22;2376;53.544;10.226;2022-07-06T05:18:45;16.20;99.90
4725;DHT22;2376;53.544;10.226;2022-07-06T05:21:13;16.20;99.90
4725;DHT22;2376;53.544;10.226;2022-07-06T05:23:40;16.30;99.90
4725;DHT22;2376;53.544;10.226;2022-07-06T05:26:07;16.30;99.90
4725;DHT22;2376;53.544;10.226;2022-07-06T05:28:34;16.30;99.90
4725;DHT22;2376;53.544;10.226;2022-07-06T05:31:00;16.30;99.90
4725;DHT22;2376;53.544;10.226;2022-07-06T05:33:27;16.30;99.90
4725;DHT22;2376;53.544;10.226;2022-07-06T05:35:54;16.30;99.90
4725;DHT22;2376;53.544;10.226;2022-07-06T05:38:22;16.30;99.90
4725;DHT22;2376;53.544;10.226;2022-07-06T05:40:49;16.30;99.90
4725;DHT22;2376;53.544;10.226;2022-07-06T05:43:16;16.20;99.90
4725;DHT22;2376;53.544;10.226;2022-07-06T05:45:43;16.20;99.90
4725;DHT22;2376;53.544;10.226;2022-07-06T05:48:10;16.20;99.90
4725;DHT22;2376;53.544;10.226;2022-07-06T05:50:54;16.20;99.90
4725;DHT22;2376;53.544;10.226;2022-07-06T05:53:22;16.20;99.90
4725;DHT22;2376;53.544;10.226;2022-07-06T05:55:49;16.20;99.90
4725;DHT22;2376;53.544;10.226;2022-07-06T05:58:16;16.20;99.90
4725;DHT22;2376;53.544;10.226;2022-07-06T06:00:43;16.30;99.90
4725;DHT22;2376;53.544;10.226;2022-07-06T06:03:09;16.30;99.90
4725;DHT22;2376;53.544;10.226;2022-07-06T06:05:36;16.30;99.90
4725;DHT22;2376;53.544;10.226;2022-07-06T06:08:04;16.30;99.90
4725;DHT22;2376;53.544;10.226;2022-07-06T06:10:32;16.30;99.90
4725;DHT22;2376;53.544;10.226;2022-07-06T06:12:59;16.20;99.90
4725;DHT22;2376;53.544;10.226;2022-07-06T06:15:26;16.10;99.90
4725;DHT22;2376;53.544;10.226;2022-07-06T06:17:53;16.20;99.90
4725;DHT22;2376;53.544;10.226;2022-07-06T06:20:19;16.20;99.90
4725;DHT22;2376;53.544;10.226;2022-07-06T06:22:47;16.20;99.90
4725;DHT22;2376;53.544;10.226;2022-07-06T06:25:15;16.10;99.90
4725;DHT22;2376;53.544;10.226;2022-07-06T06:27:43;16.10;99.90
4725;DHT22;2376;53.544;10.226;2022-07-06T06:30:11;16.10;99.90
4725;DHT22;2376;53.544;10.226;2022-07-06T06:32:39;16.00;99.90
4725;DHT22;2376;53.544;10.226;2022-07-06T06:35:06;15.90;99.90
4725;DHT22;2376;53.544;10.226;2022-07-06T06:37:33;15.80;99.90
4725;DHT22;2376;53.544;10.226;2022-07-06T06:40:00;16.00;99.90
4725;DHT22;2376;53.544;10.226;2022-07-06T06:42:27;16.00;99.90
4725;DHT22;2376;53.544;10.226;2022-07-06T06:44:55;16.10;99.90
4725;DHT22;2376;53.544;10.226;2022-07-06T06:47:22;16.20;99.90
4725;DHT22;2376;53.544;10.226;2022-07-06T06:49:49;16.30;99.90
4725;DHT22;2376;53.544;10.226;2022-07-06T06:52:16;16.30;99.90
4725;DHT22;2376;53.544;10.226;2022-07-06T06:54:43;16.40;99.90
4725;DHT22;2376;53.544;10.226;2022-07-06T06:57:10;16.40;99.90
4725;DHT22;2376;53.544;10.226;2022-07-06T06:59:36;16.50;99.90
4725;DHT22;2376;53.544;10.226;2022-07-06T07:02:05;16.50;99.90
4725;DHT22;2376;53.544;10.226;2022-07-06T07:04:32;16.60;99.90
4725;DHT22;2376;53.544;10.226;2022-07-06T07:06:59;16.50;99.90
4725;DHT22;2376;53.544;10.226;2022-07-06T07:09:26;16.50;99.90
4725;DHT22;2376;53.544;10.226;2022-07-06T07:11:52;16.50;99.90
4725;DHT22;2376;53.544;10.226;2022-07-06T07:14:20;16.50;99.90
4725;DHT22;2376;53.544;10.226;2022-07-06T07:16:47;16.50;99.90
4725;DHT22;2376;53.544;10.226;2022-07-06T07:19:15;16.60;99.90
4725;DHT22;2376;53.544;10.226;2022-07-06T07:21:42;16.70;99.90
4725;DHT22;2376;53.544;10.226;2022-07-06T07:24:09;16.70;99.90
4725;DHT22;2376;53.544;10.226;2022-07-06T07:26:35;16.70;99.90
4725;DHT22;2376;53.544;10.226;2022-07-06T07:29:03;16.70;99.90
4725;DHT22;2376;53.544;10.226;2022-07-06T07:31:30;16.80;99.90
4725;DHT22;2376;53.544;10.226;2022-07-06T07:33:56;16.80;99.90
4725;DHT22;2376;53.544;10.226;2022-07-06T07:36:25;16.90;99.90
4725;DHT22;2376;53.544;10.226;2022-07-06T07:38:52;16.90;99.90
4725;DHT22;2376;53.544;10.226;2022-07-06T07:41:19;17.00;99.90
4725;DHT22;2376;53.544;10.226;2022-07-06T07:43:46;17.00;99.90
4725;DHT22;2376;53.544;10.226;2022-07-06T07:46:12;17.10;99.90
4725;DHT22;2376;53.544;10.226;2022-07-06T07:48:39;17.10;99.90
4725;DHT22;2376;53.544;10.226;2022-07-06T07:51:06;17.10;99.90
4725;DHT22;2376;53.544;10.226;2022-07-06T07:53:34;17.20;99.90
4725;DHT22;2376;53.544;10.226;2022-07-06T07:56:01;17.20;99.90
4725;DHT22;2376;53.544;10.226;2022-07-06T07:58:28;17.20;99.90
4725;DHT22;2376;53.544;10.226;2022-07-06T08:00:55;17.20;99.90
4725;DHT22;2376;53.544;10.226;2022-07-06T08:03:22;17.20;99.90
4725;DHT22;2376;53.544;10.226;2022-07-06T08:05:48;17.20;99.90
4725;DHT22;2376;53.544;10.226;2022-07-06T08:08:16;17.20;99.90
4725;DHT22;2376;53.544;10.226;2022-07-06T08:10:44;17.20;99.90
4725;DHT22;2376;53.544;10.226;2022-07-06T08:13:11;17.30;99.90
4725;DHT22;2376;53.544;10.226;2022-07-06T08:15:40;17.40;99.90
4725;DHT22;2376;53.544;10.226;2022-07-06T08:18:07;17.30;99.90
4725;DHT22;2376;53.544;10.226;2022-07-06T08:20:34;17.30;99.90
4725;DHT22;2376;53.544;10.226;2022-07-06T08:23:01;17.40;99.90
4725;DHT22;2376;53.544;10.226;2022-07-06T08:25:28;17.40;99.90
4725;DHT22;2376;53.544;10.226;2022-07-06T08:27:56;17.30;99.90
4725;DHT22;2376;53.544;10.226;2022-07-06T08:30:23;17.40;99.90
4725;DHT22;2376;53.544;10.226;2022-07-06T08:32:50;17.40;99.90
4725;DHT22;2376;53.544;10.226;2022-07-06T08:35:17;17.50;99.90
4725;DHT22;2376;53.544;10.226;2022-07-06T08:37:44;17.60;99.90
4725;DHT22;2376;53.544;10.226;2022-07-06T08:40:11;17.70;99.90
4725;DHT22;2376;53.544;10.226;2022-07-06T08:42:38;17.70;99.90
4725;DHT22;2376;53.544;10.226;2022-07-06T08:45:07;17.80;99.90
4725;DHT22;2376;53.544;10.226;2022-07-06T08:47:36;17.80;99.90
4725;DHT22;2376;53.544;10.226;2022-07-06T08:50:04;17.90;99.90
4725;DHT22;2376;53.544;10.226;2022-07-06T08:52:32;17.90;99.90
4725;DHT22;2376;53.544;10.226;2022-07-06T08:54:59;18.00;99.90
4725;DHT22;2376;53.544;10.226;2022-07-06T08:57:26;18.10;99.90
4725;DHT22;2376;53.544;10.226;2022-07-06T08:59:54;18.10;99.90
4725;DHT22;2376;53.544;10.226;2022-07-06T09:02:24;18.00;99.90
4725;DHT22;2376;53.544;10.226;2022-07-06T09:04:54;18.10;99.90
4725;DHT22;2376;53.544;10.226;2022-07-06T09:07:22;18.00;99.90
4725;DHT22;2376;53.544;10.226;2022-07-06T09:09:52;18.00;99.90
4725;DHT22;2376;53.544;10.226;2022-07-06T09:12:19;17.90;99.90
4725;DHT22;2376;53.544;10.226;2022-07-06T09:14:46;17.80;99.90
4725;DHT22;2376;53.544;10.226;2022-07-06T09:17:13;17.80;99.90
4725;DHT22;2376;53.544;10.226;2022-07-06T09:19:41;17.90;99.90
4725;DHT22;2376;53.544;10.226;2022-07-06T09:22:08;17.80;99.90
4725;DHT22;2376;53.544;10.226;2022-07-06T09:24:41;17.80;99.90
4725;DHT22;2376;53.544;10.226;2022-07-06T09:27:15;17.80;99.90
4725;DHT22;2376;53.544;10.226;2022-07-06T09:29:43;17.70;99.90
4725;DHT22;2376;53.544;10.226;2022-07-06T09:32:11;17.40;99.90
4725;DHT22;2376;53.544;10.226;2022-07-06T09:34:43;17.40;99.90
4725;DHT22;2376;53.544;10.226;2022-07-06T09:37:11;17.40;99.90
4725;DHT22;2376;53.544;10.226;2022-07-06T09:39:38;17.40;99.90
4725;DHT22;2376;53.544;10.226;2022-07-06T09:42:06;17.40;99.90
4725;DHT22;2376;53.544;10.226;2022-07-06T09:44:36;17.40;99.90
4725;DHT22;2376;53.544;10.226;2022-07-06T09:47:05;17.40;99.90
4725;DHT22;2376;53.544;10.226;2022-07-06T09:49:33;17.50;99.90
4725;DHT22;2376;53.544;10.226;2022-07-06T09:52:03;17.60;99.90
4725;DHT22;2376;53.544;10.226;2022-07-06T09:54:30;17.30;99.90
4725;DHT22;2376;53.544;10.226;2022-07-06T09:56:57;17.40;99.90
4725;DHT22;2376;53.544;10.226;2022-07-06T09:59:26;17.50;99.90
4725;DHT22;2376;53.544;10.226;2022-07-06T10:01:54;17.60;99.90
4725;DHT22;2376;53.544;10.226;2022-07-06T10:04:22;17.80;99.90
4725;DHT22;2376;53.544;10.226;2022-07-06T10:06:50;17.80;99.90
4725;DHT22;2376;53.544;10.226;2022-07-06T10:09:20;17.80;99.90
4725;DHT22;2376;53.544;10.226;2022-07-06T10:11:49;17.80;99.90
4725;DHT22;2376;53.544;10.226;2022-07-06T10:14:18;17.80;99.90
4725;DHT22;2376;53.544;10.226;2022-07-06T10:16:46;17.80;99.90
4725;DHT22;2376;53.544;10.226;2022-07-06T10:19:14;17.90;99.90
4725;DHT22;2376;53.544;10.226;2022-07-06T10:21:41;18.10;99.90
4725;DHT22;2376;53.544;10.226;2022-07-06T10:24:09;18.20;99.90
4725;DHT22;2376;53.544;10.226;2022-07-06T10:26:38;18.30;99.90
4725;DHT22;2376;53.544;10.226;2022-07-06T10:29:06;18.50;99.90
4725;DHT22;2376;53.544;10.226;2022-07-06T10:31:35;18.60;99.90
4725;DHT22;2376;53.544;10.226;2022-07-06T10:34:05;18.70;99.90
4725;DHT22;2376;53.544;10.226;2022-07-06T10:36:37;18.80;99.90
4725;DHT22;2376;53.544;10.226;2022-07-06T10:39:04;18.90;99.90
4725;DHT22;2376;53.544;10.226;2022-07-06T10:41:54;18.90;99.90
4725;DHT22;2376;53.544;10.226;2022-07-06T10:44:22;18.80;99.90
4725;DHT22;2376;53.544;10.226;2022-07-06T10:46:54;18.60;99.90
4725;DHT22;2376;53.544;10.226;2022-07-06T10:49:21;18.50;99.90
4725;DHT22;2376;53.544;10.226;2022-07-06T10:51:49;18.50;99.90
4725;DHT22;2376;53.544;10.226;2022-07-06T10:54:18;18.40;99.90
4725;DHT22;2376;53.544;10.226;2022-07-06T10:56:46;18.20;99.90
4725;DHT22;2376;53.544;10.226;2022-07-06T10:59:16;17.90;99.90
4725;DHT22;2376;53.544;10.226;2022-07-06T11:02:14;17.70;99.90
4725;DHT22;2376;53.544;10.226;2022-07-06T11:04:41;17.60;99.90
4725;DHT22;2376;53.544;10.226;2022-07-06T11:07:09;17.40;99.90
4725;DHT22;2376;53.544;10.226;2022-07-06T11:09:38;17.30;99.90
4725;DHT22;2376;53.544;10.226;2022-07-06T11:12:17;17.20;99.90
4725;DHT22;2376;53.544;10.226;2022-07-06T11:14:48;17.10;99.90
4725;DHT22;2376;53.544;10.226;2022-07-06T11:17:15;17.10;99.90
4725;DHT22;2376;53.544;10.226;2022-07-06T11:19:49;17.20;99.90
4725;DHT22;2376;53.544;10.226;2022-07-06T11:22:17;17.30;99.90
4725;DHT22;2376;53.544;10.226;2022-07-06T11:24:45;17.30;99.90
4725;DHT22;2376;53.544;10.226;2022-07-06T11:27:13;17.40;99.90
4725;DHT22;2376;53.544;10.226;2022-07-06T11:29:40;17.40;99.90
4725;DHT22;2376;53.544;10.226;2022-07-06T11:32:09;17.50;99.90
4725;DHT22;2376;53.544;10.226;2022-07-06T11:34:38;17.50;99.90
4725;DHT22;2376;53.544;10.226;2022-07-06T11:37:06;17.50;99.90
4725;DHT22;2376;53.544;10.226;2022-07-06T11:39:35;17.50;99.90
4725;DHT22;2376;53.544;10.226;2022-07-06T11:42:03;17.50;99.90
4725;DHT22;2376;53.544;10.226;2022-07-06T11:44:30;17.50;99.90
4725;DHT22;2376;53.544;10.226;2022-07-06T11:46:58;17.50;99.90
4725;DHT22;2376;53.544;10.226;2022-07-06T11:49:28;17.50;99.90
4725;DHT22;2376;53.544;10.226;2022-07-06T11:51:56;17.60;99.90
4725;DHT22;2376;53.544;10.226;2022-07-06T11:54:24;17.70;99.90
4725;DHT22;2376;53.544;10.226;2022-07-06T11:56:53;17.80;99.90
4725;DHT22;2376;53.544;10.226;2022-07-06T11:59:22;17.90;99.90
4725;DHT22;2376;53.544;10.226;2022-07-06T12:01:49;18.10;99.90
4725;DHT22;2376;53.544;10.226;2022-07-06T12:04:17;18.20;99.90
4725;DHT22;2376;53.544;10.226;2022-07-06T12:06:45;18.30;99.90
4725;DHT22;2376;53.544;10.226;2022-07-06T12:09:12;18.60;99.90
4725;DHT22;2376;53.544;10.226;2022-07-06T12:11:40;18.70;99.90
4725;DHT22;2376;53.544;10.226;2022-07-06T12:14:16;18.70;99.90
4725;DHT22;2376;53.544;10.226;2022-07-06T12:16:44;18.80;99.90
4725;DHT22;2376;53.544;10.226;2022-07-06T12:19:11;18.80;99.90
4725;DHT22;2376;53.544;10.226;2022-07-06T12:21:45;18.80;99.90
4725;DHT22;2376;53.544;10.226;2022-07-06T12:24:18;18.90;99.90
4725;DHT22;2376;53.544;10.226;2022-07-06T12:26:45;18.90;99.90
4725;DHT22;2376;53.544;10.226;2022-07-06T12:29:13;19.10;99.90
4725;DHT22;2376;53.544;10.226;2022-07-06T12:31:42;19.20;99.90
4725;DHT22;2376;53.544;10.226;2022-07-06T12:34:14;19.30;99.90
4725;DHT22;2376;53.544;10.226;2022-07-06T12:36:47;19.50;99.90
4725;DHT22;2376;53.544;10.226;2022-07-06T12:39:16;19.60;99.90
4725;DHT22;2376;53.544;10.226;2022-07-06T12:41:47;19.80;99.90
4725;DHT22;2376;53.544;10.226;2022-07-06T12:44:16;19.90;99.90
4725;DHT22;2376;53.544;10.226;2022-07-06T12:46:44;20.10;99.90
4725;DHT22;2376;53.544;10.226;2022-07-06T12:49:17;20.30;99.90
4725;DHT22;2376;53.544;10.226;2022-07-06T12:51:57;20.40;99.90
4725;DHT22;2376;53.544;10.226;2022-07-06T12:54:26;20.50;99.90
4725;DHT22;2376;53.544;10.226;2022-07-06T12:56:58;20.60;99.90
4725;DHT22;2376;53.544;10.226;2022-07-06T12:59:25;20.60;98.10
4725;DHT22;2376;53.544;10.226;2022-07-06T13:01:53;20.70;97.10
4725;DHT22;2376;53.544;10.226;2022-07-06T13:04:22;20.70;96.30
4725;DHT22;2376;53.544;10.226;2022-07-06T13:06:49;20.60;96.00
4725;DHT22;2376;53.544;10.226;2022-07-06T13:09:18;20.60;95.90
4725;DHT22;2376;53.544;10.226;2022-07-06T13:11:46;20.40;96.20
4725;DHT22;2376;53.544;10.226;2022-07-06T13:14:13;20.40;97.00
4725;DHT22;2376;53.544;10.226;2022-07-06T13:16:40;20.40;97.90
4725;DHT22;2376;53.544;10.226;2022-07-06T13:19:07;20.40;97.30
4725;DHT22;2376;53.544;10.226;2022-07-06T13:21:35;20.40;97.20
4725;DHT22;2376;53.544;10.226;2022-07-06T13:24:02;20.30;96.60
4725;DHT22;2376;53.544;10.226;2022-07-06T13:26:31;20.20;97.30
4725;DHT22;2376;53.544;10.226;2022-07-06T13:28:59;20.20;97.50
4725;DHT22;2376;53.544;10.226;2022-07-06T13:31:26;20.30;97.50
4725;DHT22;2376;53.544;10.226;2022-07-06T13:33:53;20.40;97.70
4725;DHT22;2376;53.544;10.226;2022-07-06T13:36:20;20.50;97.60
4725;DHT22;2376;53.544;10.226;2022-07-06T13:38:47;20.60;97.30
4725;DHT22;2376;53.544;10.226;2022-07-06T13:41:13;20.80;97.50
4725;DHT22;2376;53.544;10.226;2022-07-06T13:43:42;20.80;96.70
4725;DHT22;2376;53.544;10.226;2022-07-06T13:46:08;20.90;96.70
4725;DHT22;2376;53.544;10.226;2022-07-06T13:48:36;21.00;96.30
4725;DHT22;2376;53.544;10.226;2022-07-06T13:51:03;21.10;96.20
4725;DHT22;2376;53.544;10.226;2022-07-06T13:53:31;21.00;95.90
4725;DHT22;2376;53.544;10.226;2022-07-06T13:55:58;21.10;95.90
4725;DHT22;2376;53.544;10.226;2022-07-06T13:58:25;20.90;94.80
4725;DHT22;2376;53.544;10.226;2022-07-06T14:00:53;20.90;95.80
4725;DHT22;2376;53.544;10.226;2022-07-06T14:03:20;21.00;96.30
4725;DHT22;2376;53.544;10.226;2022-07-06T14:05:56;21.20;94.60
4725;DHT22;2376;53.544;10.226;2022-07-06T14:08:24;21.20;93.70
4725;DHT22;2376;53.544;10.226;2022-07-06T14:10:52;21.20;93.90
4725;DHT22;2376;53.544;10.226;2022-07-06T14:13:19;21.30;93.60
4725;DHT22;2376;53.544;10.226;2022-07-06T14:15:46;21.30;93.00
4725;DHT22;2376;53.544;10.226;2022-07-06T14:18:15;21.40;93.00
4725;DHT22;2376;53.544;10.226;2022-07-06T14:20:43;21.40;92.60
4725;DHT22;2376;53.544;10.226;2022-07-06T14:23:11;21.50;92.50
4725;DHT22;2376;53.544;10.226;2022-07-06T14:25:38;21.50;90.10
4725;DHT22;2376;53.544;10.226;2022-07-06T14:28:06;21.60;86.70
4725;DHT22;2376;53.544;10.226;2022-07-06T14:30:33;21.60;86.30
4725;DHT22;2376;53.544;10.226;2022-07-06T14:33:02;21.60;85.10
4725;DHT22;2376;53.544;10.226;2022-07-06T14:35:34;21.70;84.00
4725;DHT22;2376;53.544;10.226;2022-07-06T14:38:01;21.70;84.70
4725;DHT22;2376;53.544;10.226;2022-07-06T14:40:29;21.40;82.30
4725;DHT22;2376;53.544;10.226;2022-07-06T14:42:56;21.40;84.50
4725;DHT22;2376;53.544;10.226;2022-07-06T14:45:22;21.40;83.70
4725;DHT22;2376;53.544;10.226;2022-07-06T14:47:49;21.30;83.10
4725;DHT22;2376;53.544;10.226;2022-07-06T14:50:16;21.30;83.90
4725;DHT22;2376;53.544;10.226;2022-07-06T14:52:44;21.40;84.00
4725;DHT22;2376;53.544;10.226;2022-07-06T14:55:11;21.30;83.10
4725;DHT22;2376;53.544;10.226;2022-07-06T14:57:38;21.30;82.00
4725;DHT22;2376;53.544;10.226;2022-07-06T15:00:06;21.40;81.30
4725;DHT22;2376;53.544;10.226;2022-07-06T15:02:33;21.30;80.10
4725;DHT22;2376;53.544;10.226;2022-07-06T15:05:00;21.20;79.90
4725;DHT22;2376;53.544;10.226;2022-07-06T15:07:27;21.10;79.80
4725;DHT22;2376;53.544;10.226;2022-07-06T15:09:56;21.10;79.20
4725;DHT22;2376;53.544;10.226;2022-07-06T15:12:23;21.00;78.70
4725;DHT22;2376;53.544;10.226;2022-07-06T15:14:50;21.00;79.50
4725;DHT22;2376;53.544;10.226;2022-07-06T15:17:17;21.00;79.70
4725;DHT22;2376;53.544;10.226;2022-07-06T15:19:44;20.90;80.10
4725;DHT22;2376;53.544;10.226;2022-07-06T15:22:11;20.90;80.10
4725;DHT22;2376;53.544;10.226;2022-07-06T15:24:38;20.60;79.00
4725;DHT22;2376;53.544;10.226;2022-07-06T15:27:07;20.60;81.30
4725;DHT22;2376;53.544;10.226;2022-07-06T15:29:34;20.70;80.20
4725;DHT22;2376;53.544;10.226;2022-07-06T15:32:01;20.80;81.40
4725;DHT22;2376;53.544;10.226;2022-07-06T15:34:28;21.00;81.90
4725;DHT22;2376;53.544;10.226;2022-07-06T15:36:54;20.90;82.00
4725;DHT22;2376;53.544;10.226;2022-07-06T15:39:22;20.90;82.00
4725;DHT22;2376;53.544;10.226;2022-07-06T15:41:49;20.70;83.10
4725;DHT22;2376;53.544;10.226;2022-07-06T15:44:17;20.50;83.50
4725;DHT22;2376;53.544;10.226;2022-07-06T15:46:43;20.40;83.70
4725;DHT22;2376;53.544;10.226;2022-07-06T15:49:12;20.40;85.30